createdAt,value
2022-12-09T00:00:44.006Z,5.03
2022-12-09T00:03:10.667Z,5.15
2022-12-09T00:05:41.044Z,4.93
2022-12-09T00:08:07.648Z,4.07
2022-12-09T00:10:34.299Z,4.25
2022-12-09T00:13:00.899Z,5.00
2022-12-09T00:15:27.531Z,4.78
2022-12-09T00:17:54.036Z,5.00
2022-12-09T00:20:20.467Z,5.22
2022-12-09T00:22:46.928Z,3.85
2022-12-09T00:25:13.475Z,4.82
2022-12-09T00:27:39.980Z,4.65
2022-12-09T00:30:07.744Z,4.35
2022-12-09T00:32:34.669Z,4.45
2022-12-09T00:35:01.892Z,3.55
2022-12-09T00:37:28.736Z,4.72
2022-12-09T00:39:55.420Z,4.57
2022-12-09T00:42:21.875Z,4.03
2022-12-09T00:44:48.367Z,4.35
2022-12-09T00:47:14.989Z,5.25
2022-12-09T00:49:41.700Z,4.20
2022-12-09T00:52:08.397Z,4.00
2022-12-09T00:54:35.035Z,3.50
2022-12-09T00:57:01.828Z,4.65
2022-12-09T00:59:28.581Z,4.40
2022-12-09T01:01:55.170Z,3.65
2022-12-09T01:04:22.054Z,4.20
2022-12-09T01:06:48.615Z,4.20
2022-12-09T01:09:15.579Z,4.60
2022-12-09T01:11:42.127Z,3.53
2022-12-09T01:14:08.664Z,4.35
2022-12-09T01:16:36.012Z,3.63
2022-12-09T01:19:05.874Z,4.05
2022-12-09T01:21:34.451Z,4.07
2022-12-09T01:24:02.014Z,3.80
2022-12-09T01:26:28.617Z,4.47
2022-12-09T01:28:57.523Z,3.83
2022-12-09T01:31:25.266Z,4.68
2022-12-09T01:33:53.617Z,3.42
2022-12-09T01:36:23.902Z,3.58
2022-12-09T01:38:51.554Z,3.30
2022-12-09T01:41:19.905Z,3.65
2022-12-09T01:44:10.466Z,3.50
2022-12-09T01:46:37.425Z,3.53
2022-12-09T01:49:06.782Z,3.38
2022-12-09T01:51:33.512Z,3.45
2022-12-09T01:54:00.897Z,3.78
2022-12-09T01:56:34.095Z,3.53
2022-12-09T01:59:07.032Z,3.78
2022-12-09T02:01:33.818Z,3.30
2022-12-09T02:04:01.149Z,2.95
2022-12-09T02:08:55.324Z,3.70
2022-12-09T02:11:51.053Z,3.40
2022-12-09T02:14:27.826Z,3.20
2022-12-09T02:17:13.168Z,3.03
2022-12-09T02:19:48.936Z,2.45
2022-12-09T02:22:21.125Z,3.00
2022-12-09T02:25:06.433Z,3.42
2022-12-09T02:27:43.292Z,2.70
2022-12-09T02:30:29.836Z,2.55
2022-12-09T02:33:18.238Z,3.67
2022-12-09T02:35:56.995Z,3.92
2022-12-09T02:38:27.068Z,2.67
2022-12-09T02:41:03.272Z,2.80
2022-12-09T02:43:46.656Z,3.13
2022-12-09T02:46:20.762Z,3.10
2022-12-09T02:48:56.563Z,2.60
2022-12-09T02:51:25.757Z,2.78
2022-12-09T02:53:56.864Z,2.97
2022-12-09T02:56:24.665Z,2.83
2022-12-09T02:58:51.604Z,3.10
2022-12-09T03:01:23.360Z,3.10
2022-12-09T03:03:53.562Z,2.70
2022-12-09T03:06:20.728Z,2.05
2022-12-09T03:09:00.212Z,2.35
2022-12-09T03:14:07.172Z,2.70
2022-12-09T03:16:34.151Z,3.00
2022-12-09T03:19:22.120Z,2.58
2022-12-09T03:21:51.307Z,2.17
2022-12-09T03:24:22.629Z,2.42
2022-12-09T03:26:51.640Z,3.45
2022-12-09T03:29:24.400Z,2.60
2022-12-09T03:31:53.149Z,2.25
2022-12-09T03:34:26.228Z,2.78
2022-12-09T03:36:53.220Z,2.90
2022-12-09T03:39:27.921Z,2.20
2022-12-09T03:42:00.183Z,1.73
2022-12-09T03:44:51.701Z,2.25
2022-12-09T03:47:18.183Z,2.10
2022-12-09T03:49:44.876Z,2.30
2022-12-09T03:52:18.926Z,2.42
2022-12-09T03:54:56.053Z,2.40
2022-12-09T03:57:23.967Z,2.28
2022-12-09T03:59:55.952Z,1.92
2022-12-09T04:02:22.697Z,2.03
2022-12-09T04:04:49.503Z,2.05
2022-12-09T04:07:17.580Z,1.92
2022-12-09T04:09:44.562Z,2.15
2022-12-09T04:12:11.209Z,2.53
2022-12-09T04:14:37.946Z,1.98
2022-12-09T04:17:04.846Z,1.90
2022-12-09T04:19:31.595Z,2.30
2022-12-09T04:21:58.285Z,2.40
2022-12-09T04:24:24.958Z,2.25
2022-12-09T04:26:51.483Z,2.30
2022-12-09T04:29:18.360Z,2.40
2022-12-09T04:31:44.952Z,2.00
2022-12-09T04:34:12.074Z,1.73
2022-12-09T04:36:38.992Z,1.92
2022-12-09T04:39:06.137Z,1.90
2022-12-09T04:41:32.746Z,2.00
2022-12-09T04:43:59.368Z,2.30
2022-12-09T04:46:26.178Z,2.08
2022-12-09T04:48:53.287Z,1.40
2022-12-09T04:51:20.196Z,1.85
2022-12-09T04:53:47.071Z,1.90
2022-12-09T04:56:19.145Z,2.60
2022-12-09T04:58:46.677Z,2.00
2022-12-09T05:03:42.111Z,2.08
2022-12-09T05:06:12.659Z,1.40
2022-12-09T05:08:40.645Z,1.65
2022-12-09T05:11:07.817Z,1.90
2022-12-09T05:13:34.790Z,1.90
2022-12-09T05:16:16.412Z,2.13
2022-12-09T05:18:44.913Z,1.83
2022-12-09T05:21:18.039Z,2.30
2022-12-09T05:23:45.228Z,1.88
2022-12-09T05:26:15.347Z,1.95
2022-12-09T05:28:42.346Z,1.40
2022-12-09T05:31:18.158Z,1.25
2022-12-09T05:33:46.256Z,1.48
2022-12-09T05:36:17.124Z,1.50
2022-12-09T05:38:44.471Z,1.45
2022-12-09T05:41:12.107Z,1.58
2022-12-09T05:43:38.964Z,1.83
2022-12-09T05:46:06.967Z,1.98
2022-12-09T05:48:34.572Z,1.80
2022-12-09T05:51:07.520Z,2.13
2022-12-09T05:53:34.819Z,1.38
2022-12-09T05:56:01.919Z,1.52
2022-12-09T05:58:28.939Z,1.60
2022-12-09T06:00:58.646Z,1.77
2022-12-09T06:03:25.394Z,1.17
2022-12-09T06:05:52.309Z,1.38
2022-12-09T06:08:19.554Z,1.20
2022-12-09T06:10:47.032Z,1.17
2022-12-09T06:13:13.977Z,1.38
2022-12-09T06:15:40.969Z,1.35
2022-12-09T06:18:07.914Z,1.67
2022-12-09T06:20:34.829Z,1.58
2022-12-09T06:23:01.448Z,1.33
2022-12-09T06:25:28.004Z,1.55
2022-12-09T06:27:54.594Z,1.60
2022-12-09T06:30:21.583Z,1.13
2022-12-09T06:32:48.380Z,1.75
2022-12-09T06:35:15.709Z,1.77
2022-12-09T06:37:43.004Z,1.05
2022-12-09T06:40:10.331Z,1.33
2022-12-09T06:42:37.089Z,1.58
2022-12-09T06:45:04.730Z,1.40
2022-12-09T06:47:31.519Z,1.40
2022-12-09T06:50:06.483Z,1.52
2022-12-09T06:52:33.631Z,1.02
2022-12-09T06:55:00.605Z,1.75
2022-12-09T06:57:27.445Z,1.95
2022-12-09T06:59:54.463Z,2.33
2022-12-09T07:02:21.626Z,1.80
2022-12-09T07:04:56.316Z,1.98
2022-12-09T07:07:23.345Z,1.10
2022-12-09T07:09:50.464Z,1.33
2022-12-09T07:12:17.142Z,1.75
2022-12-09T07:14:43.778Z,1.23
2022-12-09T07:17:16.682Z,1.70
2022-12-09T07:19:43.408Z,1.15
2022-12-09T07:22:10.838Z,1.42
2022-12-09T07:24:38.820Z,2.17
2022-12-09T07:27:10.760Z,1.98
2022-12-09T07:29:39.743Z,1.27
2022-12-09T07:32:08.104Z,1.50
2022-12-09T07:34:35.101Z,1.10
2022-12-09T07:37:01.877Z,1.60
2022-12-09T07:39:28.702Z,1.58
2022-12-09T07:41:57.710Z,1.13
2022-12-09T07:44:28.194Z,1.70
2022-12-09T07:46:56.032Z,1.80
2022-12-09T07:49:24.149Z,1.35
2022-12-09T07:51:51.459Z,1.73
2022-12-09T07:54:19.728Z,1.65
2022-12-09T07:56:47.065Z,1.13
2022-12-09T08:01:41.501Z,1.33
2022-12-09T08:04:09.115Z,1.40
2022-12-09T08:06:36.705Z,1.02
2022-12-09T08:09:07.209Z,1.08
2022-12-09T08:11:34.394Z,1.58
2022-12-09T08:14:10.450Z,1.17
2022-12-09T08:16:37.501Z,1.45
2022-12-09T08:19:04.461Z,1.40
2022-12-09T08:21:32.802Z,1.92
2022-12-09T08:24:02.397Z,1.20
2022-12-09T08:26:30.817Z,1.48
2022-12-09T08:28:58.259Z,1.77
2022-12-09T08:33:53.994Z,1.33
2022-12-09T08:38:56.149Z,1.48
2022-12-09T08:41:39.165Z,1.70
2022-12-09T08:44:11.961Z,1.40
2022-12-09T08:46:41.188Z,1.88
2022-12-09T08:49:10.018Z,1.67
2022-12-09T08:51:37.421Z,1.58
2022-12-09T08:54:06.017Z,1.48
2022-12-09T08:56:32.804Z,2.20
2022-12-09T08:58:59.657Z,1.52
2022-12-09T09:01:38.114Z,1.10
2022-12-09T09:04:08.545Z,1.85
2022-12-09T09:06:38.489Z,1.50
2022-12-09T09:09:07.134Z,1.15
2022-12-09T09:11:35.340Z,1.85
2022-12-09T09:14:05.099Z,2.78
2022-12-09T09:16:32.204Z,1.25
2022-12-09T09:18:59.272Z,1.30
2022-12-09T09:21:29.342Z,1.33
2022-12-09T09:23:56.487Z,1.17
2022-12-09T09:26:26.186Z,2.10
2022-12-09T09:28:55.109Z,1.67
2022-12-09T09:31:23.486Z,1.23
2022-12-09T09:33:50.919Z,1.73
2022-12-09T09:36:21.109Z,0.98
2022-12-09T09:38:50.022Z,1.30
2022-12-09T09:41:48.791Z,1.42
2022-12-09T09:44:18.623Z,1.25
2022-12-09T09:46:47.967Z,1.85
2022-12-09T09:49:20.570Z,1.23
2022-12-09T09:51:47.806Z,1.48
2022-12-09T09:54:16.068Z,1.65
2022-12-09T09:56:55.063Z,1.35
2022-12-09T09:59:40.325Z,1.85
2022-12-09T10:02:12.981Z,1.23
2022-12-09T10:04:43.406Z,2.00
2022-12-09T10:07:35.488Z,1.35
2022-12-09T10:10:35.970Z,1.75
2022-12-09T10:13:17.705Z,1.90
2022-12-09T10:15:57.609Z,1.35
2022-12-09T10:18:43.125Z,1.45
2022-12-09T10:21:17.119Z,1.80
2022-12-09T10:23:45.741Z,0.95
2022-12-09T10:26:22.878Z,1.25
2022-12-09T10:28:55.550Z,1.20
2022-12-09T10:31:22.699Z,1.20
2022-12-09T10:33:49.735Z,1.00
2022-12-09T10:36:24.172Z,1.35
2022-12-09T10:38:50.971Z,1.65
2022-12-09T10:41:48.117Z,1.35
2022-12-09T10:44:23.939Z,0.63
2022-12-09T10:46:58.893Z,1.38
2022-12-09T10:49:25.730Z,1.10
2022-12-09T10:51:55.571Z,1.20
2022-12-09T10:54:33.618Z,0.90
2022-12-09T10:57:05.042Z,1.60
2022-12-09T10:59:33.373Z,1.17
2022-12-09T11:02:20.296Z,1.73
2022-12-09T11:04:47.156Z,0.95
2022-12-09T11:07:27.125Z,1.00
2022-12-09T11:09:56.744Z,1.10
2022-12-09T11:12:27.316Z,0.90
2022-12-09T11:14:58.408Z,0.85
2022-12-09T11:17:28.407Z,1.13
2022-12-09T11:20:07.897Z,1.02
2022-12-09T11:22:43.482Z,0.70
2022-12-09T11:25:30.324Z,1.38
2022-12-09T11:27:59.078Z,0.77
2022-12-09T11:30:34.143Z,0.90
2022-12-09T11:33:16.516Z,1.02
2022-12-09T11:35:43.994Z,0.90
2022-12-09T11:38:38.116Z,1.00
2022-12-09T11:41:37.380Z,1.13
2022-12-09T11:44:34.338Z,0.50
2022-12-09T11:47:19.823Z,0.77
2022-12-09T11:49:54.764Z,0.90
2022-12-09T11:52:30.131Z,0.65
2022-12-09T11:55:13.338Z,0.70
2022-12-09T11:57:53.450Z,0.80
2022-12-09T12:00:25.235Z,1.23
2022-12-09T12:03:22.039Z,1.15
2022-12-09T12:05:51.437Z,0.82
2022-12-09T12:08:17.943Z,0.95
2022-12-09T12:10:54.384Z,1.00
2022-12-09T12:13:27.528Z,0.90
2022-12-09T12:16:24.501Z,0.60
2022-12-09T12:19:15.371Z,0.77
2022-12-09T12:22:08.128Z,0.65
2022-12-09T12:24:43.860Z,1.05
2022-12-09T12:27:43.551Z,0.52
2022-12-09T12:30:17.471Z,0.75
2022-12-09T12:33:59.969Z,2.00
2022-12-09T12:36:15.391Z,1.00
2022-12-09T12:38:54.420Z,1.08
2022-12-09T12:41:52.821Z,0.45
2022-12-09T12:45:07.968Z,0.68
2022-12-09T12:47:46.114Z,2.20
2022-12-09T12:50:25.299Z,1.02
2022-12-09T12:52:56.478Z,1.08
2022-12-09T12:55:38.571Z,0.60
2022-12-09T12:58:32.399Z,0.95
2022-12-09T13:01:15.730Z,0.65
2022-12-09T13:03:54.469Z,1.05
2022-12-09T13:06:36.948Z,0.68
2022-12-09T13:09:11.029Z,0.80
2022-12-09T13:12:04.023Z,0.60
2022-12-09T13:14:40.036Z,0.50
2022-12-09T13:17:12.959Z,0.85
2022-12-09T13:20:01.029Z,1.20
2022-12-09T13:22:50.682Z,0.90
2022-12-09T13:25:35.013Z,0.60
2022-12-09T13:28:19.183Z,0.88
2022-12-09T13:30:55.921Z,0.45
2022-12-09T13:33:36.114Z,0.90
2022-12-09T13:36:06.288Z,0.50
2022-12-09T13:38:36.414Z,0.75
2022-12-09T13:41:30.906Z,0.70
2022-12-09T13:44:04.658Z,0.60
2022-12-09T13:46:32.441Z,0.57
2022-12-09T13:49:09.380Z,0.57
2022-12-09T13:51:51.512Z,0.93
2022-12-09T13:54:25.107Z,0.60
2022-12-09T13:57:07.005Z,0.50
2022-12-09T13:59:45.600Z,0.40
2022-12-09T14:02:20.560Z,0.60
2022-12-09T14:05:01.562Z,1.35
2022-12-09T14:07:50.232Z,1.10
2022-12-09T14:10:43.363Z,0.45
2022-12-09T14:13:22.814Z,0.30
2022-12-09T14:16:13.525Z,0.82
2022-12-09T14:18:40.360Z,0.35
2022-12-09T14:21:19.207Z,0.32
2022-12-09T14:24:07.496Z,0.50
2022-12-09T14:26:45.933Z,0.30
2022-12-09T14:29:50.647Z,0.68
2022-12-09T14:32:36.656Z,0.82
2022-12-09T14:35:12.170Z,0.28
2022-12-09T14:37:50.768Z,0.20
2022-12-09T14:40:39.383Z,0.47
2022-12-09T14:43:20.942Z,0.60
2022-12-09T14:45:54.607Z,0.60
2022-12-09T14:48:31.437Z,0.40
2022-12-09T14:51:19.251Z,0.80
2022-12-09T14:53:53.996Z,0.30
2022-12-09T14:56:22.657Z,0.45
2022-12-09T14:58:54.259Z,0.30
2022-12-09T15:01:21.013Z,0.30
2022-12-09T15:03:53.367Z,0.20
2022-12-09T15:06:20.686Z,0.50
2022-12-09T15:08:48.192Z,0.40
2022-12-09T15:11:20.867Z,0.70
2022-12-09T15:13:50.317Z,1.02
2022-12-09T15:16:21.202Z,0.40
2022-12-09T15:18:49.555Z,0.38
2022-12-09T15:21:29.342Z,0.65
2022-12-09T15:23:57.026Z,0.32
2022-12-09T15:26:32.754Z,0.47
2022-12-09T15:29:01.122Z,0.70
2022-12-09T15:31:30.078Z,0.20
2022-12-09T15:33:59.615Z,0.55
2022-12-09T15:37:00.488Z,0.40
2022-12-09T15:39:33.772Z,0.90
2022-12-09T15:42:09.596Z,0.60
2022-12-09T15:44:55.270Z,1.10
2022-12-09T15:50:23.362Z,0.57
2022-12-09T15:52:58.257Z,0.60
2022-12-09T15:55:55.501Z,1.15
2022-12-09T15:58:27.093Z,0.52
2022-12-09T16:00:54.311Z,1.02
2022-12-09T16:03:33.090Z,0.77
2022-12-09T16:06:08.494Z,0.93
2022-12-09T16:08:41.579Z,0.75
2022-12-09T16:11:08.021Z,0.80
2022-12-09T16:13:35.003Z,1.17
2022-12-09T16:16:22.101Z,1.55
2022-12-09T16:18:50.413Z,0.68
2022-12-09T16:21:22.790Z,1.10
2022-12-09T16:23:52.923Z,1.08
2022-12-09T16:26:30.432Z,1.23
2022-12-09T16:29:00.346Z,1.05
2022-12-09T16:31:27.312Z,1.52
2022-12-09T16:33:54.103Z,1.25
2022-12-09T16:36:29.078Z,1.80
2022-12-09T16:39:17.951Z,1.58
2022-12-09T16:41:50.407Z,1.52
2022-12-09T16:44:19.930Z,1.13
2022-12-09T16:46:46.810Z,1.95
2022-12-09T16:49:13.555Z,1.50
2022-12-09T16:51:40.548Z,1.77
2022-12-09T16:54:19.699Z,1.52
2022-12-09T16:56:47.011Z,1.42
2022-12-09T16:59:13.459Z,1.73
2022-12-09T17:01:42.135Z,1.35
2022-12-09T17:04:17.088Z,1.60
2022-12-09T17:06:43.917Z,1.70
2022-12-09T17:09:11.947Z,1.15
2022-12-09T17:11:38.417Z,1.40
2022-12-09T17:14:05.046Z,1.00
2022-12-09T17:16:31.612Z,1.67
2022-12-09T17:18:58.143Z,1.77
2022-12-09T17:21:24.620Z,1.48
2022-12-09T17:23:51.093Z,1.45
2022-12-09T17:26:19.215Z,1.13
2022-12-09T17:28:46.783Z,1.88
2022-12-09T17:31:16.668Z,1.50
2022-12-09T17:33:43.884Z,1.95
2022-12-09T17:36:11.704Z,1.25
2022-12-09T17:38:38.262Z,1.33
2022-12-09T17:41:10.244Z,1.05
2022-12-09T17:43:37.298Z,1.13
2022-12-09T17:46:05.755Z,1.40
2022-12-09T17:48:34.073Z,1.15
2022-12-09T17:51:08.696Z,1.45
2022-12-09T17:53:39.864Z,1.58
2022-12-09T17:56:18.516Z,1.58
2022-12-09T17:58:45.359Z,1.15
2022-12-09T18:01:14.420Z,1.38
2022-12-09T18:03:55.717Z,1.15
2022-12-09T18:06:23.908Z,1.92
2022-12-09T18:08:50.409Z,2.00
2022-12-09T18:11:17.174Z,1.35
2022-12-09T18:13:43.602Z,1.60
2022-12-09T18:16:12.495Z,1.58
2022-12-09T18:18:39.691Z,1.52
2022-12-09T18:21:12.068Z,1.42
2022-12-09T18:23:41.883Z,1.58
2022-12-09T18:26:10.324Z,1.80
2022-12-09T18:28:37.345Z,1.25
2022-12-09T18:31:12.030Z,1.63
2022-12-09T18:33:38.815Z,1.73
2022-12-09T18:36:10.888Z,2.13
2022-12-09T18:38:38.636Z,1.38
2022-12-09T18:41:09.662Z,1.83
2022-12-09T18:43:38.788Z,1.42
2022-12-09T18:46:08.805Z,1.40
2022-12-09T18:48:36.008Z,1.95
2022-12-09T18:51:02.487Z,2.17
2022-12-09T18:53:29.386Z,1.95
2022-12-09T18:55:56.037Z,1.83
2022-12-09T18:58:36.780Z,2.03
2022-12-09T19:01:27.232Z,2.13
2022-12-09T19:03:57.099Z,1.95
2022-12-09T19:06:27.741Z,1.85
2022-12-09T19:09:04.039Z,2.00
2022-12-09T19:11:32.950Z,1.88
2022-12-09T19:14:00.117Z,2.58
2022-12-09T19:16:28.719Z,1.75
2022-12-09T19:18:56.208Z,1.58
2022-12-09T19:21:24.256Z,2.42
2022-12-09T19:23:51.278Z,1.88
2022-12-09T19:26:29.751Z,2.28
2022-12-09T19:29:02.977Z,1.85
2022-12-09T19:31:31.886Z,2.53
2022-12-09T19:34:00.578Z,2.13
2022-12-09T19:36:29.023Z,2.63
2022-12-09T19:38:57.471Z,2.10
2022-12-09T19:41:24.036Z,2.40
2022-12-09T19:43:57.767Z,1.83
2022-12-09T19:46:26.335Z,2.78
2022-12-09T19:48:53.570Z,2.53
2022-12-09T19:51:20.865Z,2.03
2022-12-09T19:53:48.556Z,3.15
2022-12-09T19:56:18.806Z,2.22
2022-12-09T19:58:46.807Z,2.60
2022-12-09T20:01:21.962Z,2.95
2022-12-09T20:03:51.277Z,3.15
2022-12-09T20:06:19.960Z,2.88
2022-12-09T20:08:47.258Z,3.00
2022-12-09T20:11:22.485Z,2.88
2022-12-09T20:13:49.895Z,3.20
2022-12-09T20:18:45.415Z,2.75
2022-12-09T20:21:13.725Z,2.75
2022-12-09T20:23:42.416Z,2.72
2022-12-09T20:26:13.080Z,2.72
2022-12-09T20:28:40.716Z,3.40
2022-12-09T20:31:09.588Z,2.58
2022-12-09T20:33:36.716Z,2.67
2022-12-09T20:36:09.307Z,2.67
2022-12-09T20:38:36.414Z,3.45
2022-12-09T20:41:05.311Z,2.90
2022-12-09T20:43:37.905Z,2.80
2022-12-09T20:46:15.665Z,3.10
2022-12-09T20:48:42.894Z,2.85
2022-12-09T20:51:13.516Z,2.35
2022-12-09T20:53:41.659Z,2.63
2022-12-09T20:56:08.819Z,2.70
2022-12-09T20:58:39.163Z,3.10
2022-12-09T21:01:07.664Z,3.10
2022-12-09T21:03:34.705Z,3.33
2022-12-09T21:06:01.797Z,3.08
2022-12-09T21:08:31.721Z,3.28
2022-12-09T21:11:14.832Z,3.78
2022-12-09T21:13:44.304Z,4.00
2022-12-09T21:16:22.020Z,3.40
2022-12-09T21:18:50.386Z,3.03
2022-12-09T21:21:18.775Z,2.90
2022-12-09T21:23:45.741Z,3.40
2022-12-09T21:26:15.215Z,2.22
2022-12-09T21:28:42.807Z,3.53
2022-12-09T21:31:13.350Z,3.67
2022-12-09T21:33:41.368Z,3.13
2022-12-09T21:36:10.928Z,3.45
2022-12-09T21:38:37.890Z,3.85
2022-12-09T21:41:07.002Z,5.05
2022-12-09T21:43:35.636Z,3.60
2022-12-09T21:46:17.632Z,3.22
2022-12-09T21:48:50.579Z,2.92
2022-12-09T21:51:19.802Z,3.80
2022-12-09T21:53:46.950Z,3.38
2022-12-09T21:56:16.077Z,3.28
2022-12-09T21:58:44.650Z,2.90
2022-12-09T22:01:22.112Z,3.80
2022-12-09T22:03:49.257Z,3.75
2022-12-09T22:06:16.596Z,3.50
2022-12-09T22:11:16.645Z,3.30
2022-12-09T22:13:43.835Z,3.80
2022-12-09T22:16:16.653Z,3.28
